Opp, AL

12:08 PM CDT on August 04, 2015 (GMT -0500)
Opp Cablevision Headend | | Change Station
CLOSE
Current Station
Personal Weather Station
Location: Opp, AL
Elevation: 327 ft
Nearby Weather Stations

Elev 327 ft 31.29 °N, 86.26 °W | Updated 4 seconds ago

Clear
Clear
91.3 °F
Feels Like 100 °F
N
2.0
Wind Variable Wind from West
Gusts 5.0 mph

Today
High -- | Low -- °F
--% Chance of Precip.
Yesterday
High -- | Low -- °F
Precip. -- in
6:03 AM 7:38 PM
Waning Gibbous, 76% visible
Pressure 29.99 in
Visibility 10.0 miles
Clouds Clear
Heat Index 100 °F
Dew Point 73 °F
Humidity 56%
Rainfall 0.00 in
Snow Depth Not available.
UV 13 out of 12
Pollen 5.00 out of 12
Air Quality Not available.
Flu Activity Not available.
METAR K79J 041656Z AUTO 00000KT 10SM CLR 37/17 A3001 RMK AO2 SLP156 T03720172

More Conditions Fewer Conditions

Pressure 29.99 in
Visibility 10.0 miles
Clouds Clear
Heat Index 100 °F
Dew Point 73 °F
Humidity 56%
Rainfall 0.00 in
Snow Depth Not available.
UV 13 out of 12
Pollen 5.00 out of 12
Air Quality Not available.
Flu Activity Not available.
METAR K79J 041656Z AUTO 00000KT 10SM CLR 37/17 A3001 RMK AO2 SLP156 T03720172

More Conditions Fewer Conditions

10-Day Weather Forecast

×

Almanac

Astronomy

Aug. 04, 2015 Rise Set
Actual Time
Civil Twilight
Nautical Twilight
Astronomical Twilight
Moon
Length of Visible Light
Length of Day
Tomorrow will be .
, % of the Moon is Illuminated

Today's Extremes

State Highs State Lows

Community

WunderPhotos

Upload Photos

1,843,929 photos uploaded!

WunderBlogs® & News

Nearby

Air Quality

  Air Quality AQ Index Pollutant
Not available.

Snow Depth

Station Depth Elevation

Earthquake Activity

City Distance Mag. Time & Date
Minimum magnitude displayed is 2.5.

Coastal Water Temperatures

Place Temperature

Stations

Nearby Weather Stations

Station Location Temp. Windchill Dew Point Humidity Wind Precip. Elev Updated Type